DAL2567 KEWR-KDTW
Flight info
| Callsign | DAL2567 |
|---|---|
| Flight time | 1h 24m |
| Altitude | 36000 |
| Route | COATE Q436 REXXY JACCI FERRL2 |
| Aircraft | B739/M-SDE2E3FGHIRWXY/LB1 |
Departure
| Time | 2026-05-06 22:33 |
|---|---|
| Airport | Newark Liberty International Airport (KEWR) |
Arrival
| Time | 2026-05-06 23:58 |
|---|---|
| Airport | Detroit Metropolitan Wayne County Airport (KDTW) |
| Time | Latitude | Longitude | Altitude | Speed | Heading |
|---|---|---|---|---|---|
| 2026-05-06 22:07 | 40.68208 | -74.18718 | 21 ft | 0 kts | 288° |
| 2026-05-06 22:20 | 40.68207 | -74.18712 | 21 ft | 3 kts | 288° |
| 2026-05-06 22:20 | 40.68199 | -74.18679 | 21 ft | 4 kts | 297° |
| 2026-05-06 22:21 | 40.68183 | -74.18652 | 21 ft | 4 kts | 328° |
| 2026-05-06 22:21 | 40.68161 | -74.18644 | 21 ft | 2 kts | 11° |
| 2026-05-06 22:21 | 40.68159 | -74.18644 | 21 ft | 0 kts | 12° |
| 2026-05-06 22:24 | 40.68169 | -74.18641 | 21 ft | 3 kts | 12° |
| 2026-05-06 22:24 | 40.68200 | -74.18630 | 21 ft | 7 kts | 25° |
| 2026-05-06 22:24 | 40.68244 | -74.18570 | 22 ft | 12 kts | 62° |
| 2026-05-06 22:24 | 40.68248 | -74.18449 | 21 ft | 14 kts | 95° |
| 2026-05-06 22:25 | 40.68239 | -74.18320 | 21 ft | 14 kts | 95° |
| 2026-05-06 22:25 | 40.68234 | -74.18198 | 21 ft | 13 kts | 86° |
| 2026-05-06 22:25 | 40.68235 | -74.18079 | 21 ft | 13 kts | 94° |
| 2026-05-06 22:25 | 40.68223 | -74.17965 | 21 ft | 12 kts | 104° |
| 2026-05-06 22:26 | 40.68187 | -74.17863 | 23 ft | 12 kts | 117° |
| 2026-05-06 22:26 | 40.68153 | -74.17763 | 21 ft | 12 kts | 101° |
| 2026-05-06 22:26 | 40.68200 | -74.17687 | 21 ft | 12 kts | 25° |
| 2026-05-06 22:26 | 40.68271 | -74.17643 | 22 ft | 11 kts | 26° |
| 2026-05-06 22:27 | 40.68339 | -74.17597 | 23 ft | 11 kts | 27° |
| 2026-05-06 22:27 | 40.68405 | -74.17553 | 23 ft | 11 kts | 27° |
| 2026-05-06 22:27 | 40.68468 | -74.17508 | 23 ft | 10 kts | 28° |
| 2026-05-06 22:27 | 40.68532 | -74.17469 | 23 ft | 10 kts | 24° |
| 2026-05-06 22:28 | 40.68594 | -74.17432 | 24 ft | 10 kts | 24° |
| 2026-05-06 22:28 | 40.68659 | -74.17393 | 24 ft | 11 kts | 24° |
| 2026-05-06 22:28 | 40.68736 | -74.17346 | 25 ft | 13 kts | 26° |
| 2026-05-06 22:28 | 40.68826 | -74.17288 | 23 ft | 16 kts | 26° |
| 2026-05-06 22:29 | 40.68929 | -74.17222 | 21 ft | 17 kts | 26° |
| 2026-05-06 22:29 | 40.69043 | -74.17149 | 20 ft | 19 kts | 26° |
| 2026-05-06 22:29 | 40.69167 | -74.17070 | 21 ft | 20 kts | 26° |
| 2026-05-06 22:29 | 40.69297 | -74.16987 | 21 ft | 21 kts | 26° |
| 2026-05-06 22:30 | 40.69426 | -74.16905 | 22 ft | 20 kts | 25° |
| 2026-05-06 22:30 | 40.69551 | -74.16826 | 21 ft | 20 kts | 26° |
| 2026-05-06 22:30 | 40.69673 | -74.16750 | 23 ft | 19 kts | 25° |
| 2026-05-06 22:30 | 40.69790 | -74.16676 | 20 ft | 18 kts | 26° |
| 2026-05-06 22:31 | 40.69903 | -74.16602 | 21 ft | 18 kts | 27° |
| 2026-05-06 22:31 | 40.70012 | -74.16531 | 20 ft | 17 kts | 24° |
| 2026-05-06 22:31 | 40.70118 | -74.16476 | 20 ft | 15 kts | 8° |
| 2026-05-06 22:31 | 40.70223 | -74.16463 | 20 ft | 15 kts | 4° |
| 2026-05-06 22:32 | 40.70281 | -74.16395 | 21 ft | 12 kts | 86° |
| 2026-05-06 22:32 | 40.70311 | -74.16294 | 21 ft | 12 kts | 55° |
| 2026-05-06 22:32 | 40.70306 | -74.16200 | 22 ft | 12 kts | 151° |
| 2026-05-06 22:32 | 40.70230 | -74.16233 | 20 ft | 12 kts | 206° |
| 2026-05-06 22:33 | 40.70002 | -74.16379 | 18 ft | 69 kts | 206° |
| 2026-05-06 22:33 | 40.69376 | -74.16776 | 22 ft | 128 kts | 206° |
| 2026-05-06 22:33 | 40.68451 | -74.17386 | 159 ft | 158 kts | 208° |
| 2026-05-06 22:33 | 40.67475 | -74.18050 | 765 ft | 161 kts | 209° |
| 2026-05-06 22:34 | 40.66452 | -74.18779 | 1220 ft | 173 kts | 210° |
| 2026-05-06 22:34 | 40.65526 | -74.19805 | 1692 ft | 182 kts | 241° |
| 2026-05-06 22:34 | 40.65384 | -74.21476 | 2153 ft | 195 kts | 282° |
| 2026-05-06 22:34 | 40.66210 | -74.22949 | 2671 ft | 213 kts | 319° |
| 2026-05-06 22:35 | 40.67531 | -74.23859 | 3333 ft | 213 kts | 325° |
| 2026-05-06 22:35 | 40.68881 | -74.24753 | 3786 ft | 221 kts | 319° |
| 2026-05-06 22:35 | 40.70164 | -74.25955 | 4028 ft | 234 kts | 312° |
| 2026-05-06 22:35 | 40.71457 | -74.27338 | 4425 ft | 245 kts | 312° |
| 2026-05-06 22:36 | 40.72824 | -74.28822 | 4698 ft | 269 kts | 313° |
| 2026-05-06 22:36 | 40.74303 | -74.30400 | 5310 ft | 273 kts | 315° |
| 2026-05-06 22:36 | 40.75819 | -74.31916 | 6148 ft | 273 kts | 315° |
| 2026-05-06 22:36 | 40.77339 | -74.33408 | 6922 ft | 274 kts | 315° |
| 2026-05-06 22:37 | 40.78878 | -74.34919 | 7610 ft | 277 kts | 315° |
| 2026-05-06 22:37 | 40.80410 | -74.36466 | 8342 ft | 278 kts | 315° |
| 2026-05-06 22:37 | 40.81994 | -74.37984 | 8917 ft | 285 kts | 316° |
| 2026-05-06 22:37 | 40.83599 | -74.39531 | 9653 ft | 284 kts | 316° |
| 2026-05-06 22:38 | 40.85180 | -74.41060 | 10490 ft | 282 kts | 315° |
| 2026-05-06 22:38 | 40.86776 | -74.42696 | 10755 ft | 302 kts | 314° |
| 2026-05-06 22:38 | 40.88488 | -74.44464 | 10931 ft | 322 kts | 315° |
| 2026-05-06 22:38 | 40.90313 | -74.46339 | 11094 ft | 344 kts | 316° |
| 2026-05-06 22:39 | 40.91593 | -74.47636 | 11177 ft | 356 kts | 316° |
| 2026-05-06 22:39 | 40.93612 | -74.49664 | 11304 ft | 372 kts | 316° |
| 2026-05-06 22:39 | 40.95719 | -74.51761 | 11499 ft | 385 kts | 317° |
| 2026-05-06 22:39 | 40.97888 | -74.53907 | 11873 ft | 392 kts | 317° |
| 2026-05-06 22:40 | 41.00076 | -74.56063 | 12445 ft | 392 kts | 317° |
| 2026-05-06 22:40 | 41.02972 | -74.58926 | 13162 ft | 394 kts | 317° |
| 2026-05-06 22:40 | 41.05175 | -74.61111 | 13669 ft | 397 kts | 317° |
| 2026-05-06 22:40 | 41.06669 | -74.62595 | 13995 ft | 399 kts | 317° |
| 2026-05-06 22:41 | 41.11143 | -74.67054 | 14990 ft | 405 kts | 316° |
| 2026-05-06 22:41 | 41.13219 | -74.69548 | 15452 ft | 401 kts | 307° |
| 2026-05-06 22:41 | 41.14947 | -74.72432 | 15918 ft | 398 kts | 297° |
| 2026-05-06 22:42 | 41.16346 | -74.75592 | 16406 ft | 397 kts | 294° |
| 2026-05-06 22:42 | 41.17715 | -74.78795 | 16876 ft | 400 kts | 294° |
| 2026-05-06 22:42 | 41.19096 | -74.82023 | 17311 ft | 404 kts | 294° |
| 2026-05-06 22:42 | 41.20491 | -74.85271 | 17747 ft | 406 kts | 294° |
| 2026-05-06 22:43 | 41.21899 | -74.88535 | 18168 ft | 409 kts | 295° |
| 2026-05-06 22:43 | 41.23299 | -74.91772 | 18538 ft | 411 kts | 295° |
| 2026-05-06 22:43 | 41.24729 | -74.95072 | 18938 ft | 413 kts | 295° |
| 2026-05-06 22:43 | 41.26164 | -74.98383 | 19370 ft | 414 kts | 295° |
| 2026-05-06 22:44 | 41.27602 | -75.01705 | 19791 ft | 415 kts | 295° |
| 2026-05-06 22:44 | 41.29124 | -75.05225 | 20196 ft | 417 kts | 295° |
| 2026-05-06 22:44 | 41.30570 | -75.08573 | 20577 ft | 419 kts | 295° |
| 2026-05-06 22:44 | 41.32022 | -75.11939 | 20953 ft | 420 kts | 295° |
| 2026-05-06 22:45 | 41.33476 | -75.15311 | 21317 ft | 421 kts | 295° |
| 2026-05-06 22:45 | 41.34931 | -75.18692 | 21676 ft | 422 kts | 295° |
| 2026-05-06 22:45 | 41.36389 | -75.22087 | 22010 ft | 423 kts | 295° |
| 2026-05-06 22:45 | 41.37853 | -75.25497 | 22340 ft | 425 kts | 295° |
| 2026-05-06 22:46 | 41.39320 | -75.28918 | 22667 ft | 426 kts | 295° |
| 2026-05-06 22:46 | 41.40791 | -75.32351 | 22954 ft | 427 kts | 295° |
| 2026-05-06 22:46 | 41.42263 | -75.35792 | 23246 ft | 429 kts | 295° |
| 2026-05-06 22:46 | 41.43740 | -75.39249 | 23539 ft | 430 kts | 295° |
| 2026-05-06 22:47 | 41.45221 | -75.42716 | 23843 ft | 431 kts | 295° |
| 2026-05-06 22:47 | 41.46701 | -75.46186 | 24150 ft | 431 kts | 295° |
| 2026-05-06 22:47 | 41.48076 | -75.49667 | 24423 ft | 429 kts | 290° |
| 2026-05-06 22:47 | 41.49174 | -75.53346 | 24729 ft | 427 kts | 287° |
| 2026-05-06 22:48 | 41.50208 | -75.57066 | 25026 ft | 428 kts | 286° |
| 2026-05-06 22:48 | 41.51239 | -75.60791 | 25326 ft | 428 kts | 286° |
| 2026-05-06 22:48 | 41.52280 | -75.64505 | 25626 ft | 428 kts | 286° |
| 2026-05-06 22:48 | 41.53334 | -75.68219 | 25891 ft | 428 kts | 286° |
| 2026-05-06 22:49 | 41.54394 | -75.71927 | 26162 ft | 427 kts | 286° |
| 2026-05-06 22:49 | 41.55452 | -75.75619 | 26530 ft | 424 kts | 286° |
| 2026-05-06 22:49 | 41.56501 | -75.79284 | 26894 ft | 421 kts | 286° |
| 2026-05-06 22:49 | 41.57542 | -75.82923 | 27278 ft | 419 kts | 286° |
| 2026-05-06 22:50 | 41.58570 | -75.86536 | 27748 ft | 414 kts | 285° |
| 2026-05-06 22:50 | 41.59580 | -75.90110 | 28228 ft | 409 kts | 285° |
| 2026-05-06 22:50 | 41.60575 | -75.93638 | 28711 ft | 402 kts | 284° |
| 2026-05-06 22:50 | 41.61554 | -75.97126 | 29120 ft | 400 kts | 284° |
| 2026-05-06 22:51 | 41.62527 | -76.00592 | 29546 ft | 396 kts | 284° |
| 2026-05-06 22:51 | 41.63491 | -76.04015 | 30034 ft | 390 kts | 284° |
| 2026-05-06 22:51 | 41.64436 | -76.07390 | 30478 ft | 386 kts | 283° |
| 2026-05-06 22:51 | 41.65373 | -76.10732 | 30814 ft | 384 kts | 284° |
| 2026-05-06 22:52 | 41.66310 | -76.14085 | 31076 ft | 385 kts | 283° |
| 2026-05-06 22:52 | 41.67246 | -76.17438 | 31320 ft | 384 kts | 283° |
| 2026-05-06 22:52 | 41.68176 | -76.20788 | 31657 ft | 383 kts | 283° |
| 2026-05-06 22:52 | 41.69094 | -76.24113 | 32065 ft | 381 kts | 283° |
| 2026-05-06 22:53 | 41.70033 | -76.27419 | 32368 ft | 380 kts | 284° |
| 2026-05-06 22:53 | 41.70968 | -76.30710 | 32696 ft | 378 kts | 284° |
| 2026-05-06 22:53 | 41.71896 | -76.33995 | 32983 ft | 377 kts | 283° |
| 2026-05-06 22:53 | 41.72819 | -76.37272 | 33233 ft | 376 kts | 283° |
| 2026-05-06 22:54 | 41.73741 | -76.40550 | 33522 ft | 375 kts | 283° |
| 2026-05-06 22:54 | 41.74653 | -76.43801 | 33796 ft | 374 kts | 283° |
| 2026-05-06 22:54 | 41.75567 | -76.47066 | 34013 ft | 373 kts | 283° |
| 2026-05-06 22:54 | 41.76475 | -76.50311 | 34279 ft | 372 kts | 283° |
| 2026-05-06 22:55 | 41.77369 | -76.53515 | 34517 ft | 371 kts | 283° |
| 2026-05-06 22:55 | 41.78268 | -76.56753 | 34756 ft | 370 kts | 283° |
| 2026-05-06 22:55 | 41.79161 | -76.59983 | 35039 ft | 368 kts | 283° |
| 2026-05-06 22:55 | 41.80047 | -76.63197 | 35266 ft | 368 kts | 283° |
| 2026-05-06 22:56 | 41.80932 | -76.66409 | 35496 ft | 366 kts | 283° |
| 2026-05-06 22:56 | 41.81810 | -76.69603 | 35742 ft | 365 kts | 283° |
| 2026-05-06 22:56 | 41.82687 | -76.72793 | 35888 ft | 365 kts | 283° |
| 2026-05-06 22:57 | 41.84445 | -76.79196 | 35904 ft | 366 kts | 283° |
| 2026-05-06 22:57 | 41.86194 | -76.85579 | 35905 ft | 363 kts | 283° |
| 2026-05-06 22:58 | 41.87929 | -76.91932 | 35909 ft | 362 kts | 283° |
| 2026-05-06 22:58 | 41.89653 | -76.98279 | 35911 ft | 361 kts | 283° |
| 2026-05-06 22:59 | 41.91363 | -77.04615 | 35915 ft | 361 kts | 283° |
| 2026-05-06 22:59 | 41.93067 | -77.10948 | 35907 ft | 361 kts | 283° |
| 2026-05-06 23:00 | 41.94771 | -77.17278 | 35907 ft | 360 kts | 283° |
| 2026-05-06 23:00 | 41.96463 | -77.23604 | 35906 ft | 360 kts | 283° |
| 2026-05-06 23:01 | 41.98151 | -77.29924 | 35902 ft | 359 kts | 283° |
| 2026-05-06 23:01 | 41.99837 | -77.36244 | 35907 ft | 359 kts | 283° |
| 2026-05-06 23:02 | 42.01610 | -77.42544 | 35901 ft | 365 kts | 287° |
| 2026-05-06 23:02 | 42.03808 | -77.48748 | 35913 ft | 369 kts | 287° |
| 2026-05-06 23:03 | 42.06046 | -77.54985 | 35910 ft | 371 kts | 287° |
| 2026-05-06 23:03 | 42.08278 | -77.61250 | 35904 ft | 371 kts | 287° |
| 2026-05-06 23:04 | 42.10497 | -77.67517 | 35905 ft | 371 kts | 287° |
| 2026-05-06 23:04 | 42.12703 | -77.73772 | 35908 ft | 369 kts | 287° |
| 2026-05-06 23:05 | 42.14901 | -77.80019 | 35900 ft | 368 kts | 287° |
| 2026-05-06 23:05 | 42.17085 | -77.86248 | 35903 ft | 367 kts | 287° |
| 2026-05-06 23:06 | 42.19257 | -77.92462 | 35907 ft | 366 kts | 287° |
| 2026-05-06 23:06 | 42.21423 | -77.98664 | 35912 ft | 365 kts | 287° |
| 2026-05-06 23:07 | 42.23582 | -78.04863 | 35906 ft | 365 kts | 287° |
| 2026-05-06 23:07 | 42.25737 | -78.11067 | 35898 ft | 364 kts | 287° |
| 2026-05-06 23:08 | 42.27885 | -78.17256 | 35902 ft | 364 kts | 287° |
| 2026-05-06 23:08 | 42.30015 | -78.23413 | 35915 ft | 364 kts | 287° |
| 2026-05-06 23:09 | 42.32172 | -78.29664 | 35926 ft | 365 kts | 287° |
| 2026-05-06 23:09 | 42.34322 | -78.35907 | 35925 ft | 367 kts | 287° |
| 2026-05-06 23:10 | 42.36462 | -78.42135 | 35931 ft | 369 kts | 287° |
| 2026-05-06 23:10 | 42.38624 | -78.48438 | 35924 ft | 371 kts | 287° |
| 2026-05-06 23:11 | 42.40792 | -78.54773 | 35931 ft | 371 kts | 287° |
| 2026-05-06 23:11 | 42.42962 | -78.61130 | 35934 ft | 373 kts | 287° |
| 2026-05-06 23:12 | 42.45140 | -78.67522 | 35926 ft | 374 kts | 287° |
| 2026-05-06 23:12 | 42.46971 | -78.74027 | 35949 ft | 364 kts | 275° |
| 2026-05-06 23:13 | 42.47328 | -78.80807 | 35953 ft | 361 kts | 269° |
| 2026-05-06 23:13 | 42.47522 | -78.87621 | 35955 ft | 362 kts | 269° |
| 2026-05-06 23:14 | 42.47724 | -78.94447 | 35963 ft | 363 kts | 269° |
| 2026-05-06 23:14 | 42.47934 | -79.01285 | 35955 ft | 363 kts | 269° |
| 2026-05-06 23:15 | 42.48148 | -79.08114 | 35965 ft | 363 kts | 269° |
| 2026-05-06 23:15 | 42.48359 | -79.14951 | 35974 ft | 363 kts | 269° |
| 2026-05-06 23:16 | 42.48567 | -79.21781 | 35973 ft | 363 kts | 269° |
| 2026-05-06 23:16 | 42.48770 | -79.28606 | 35971 ft | 362 kts | 269° |
| 2026-05-06 23:17 | 42.48968 | -79.35419 | 35971 ft | 361 kts | 269° |
| 2026-05-06 23:17 | 42.49162 | -79.42206 | 35972 ft | 360 kts | 269° |
| 2026-05-06 23:18 | 42.49351 | -79.48970 | 35970 ft | 358 kts | 269° |
| 2026-05-06 23:18 | 42.49536 | -79.55707 | 35975 ft | 357 kts | 269° |
| 2026-05-06 23:19 | 42.49715 | -79.62423 | 35973 ft | 356 kts | 269° |
| 2026-05-06 23:19 | 42.49891 | -79.69121 | 35971 ft | 356 kts | 269° |
| 2026-05-06 23:20 | 42.50061 | -79.75763 | 35963 ft | 355 kts | 269° |
| 2026-05-06 23:20 | 42.50228 | -79.82436 | 35970 ft | 354 kts | 269° |
| 2026-05-06 23:21 | 42.50392 | -79.89094 | 35973 ft | 353 kts | 269° |
| 2026-05-06 23:21 | 42.50549 | -79.95734 | 35973 ft | 353 kts | 269° |
| 2026-05-06 23:22 | 42.50678 | -80.01258 | 35971 ft | 353 kts | 269° |
| 2026-05-06 23:22 | 42.50830 | -80.07951 | 35975 ft | 353 kts | 269° |
| 2026-05-06 23:23 | 42.50978 | -80.14597 | 35972 ft | 353 kts | 269° |
| 2026-05-06 23:23 | 42.51123 | -80.21243 | 35972 ft | 352 kts | 269° |
| 2026-05-06 23:24 | 42.51261 | -80.27840 | 35982 ft | 353 kts | 269° |
| 2026-05-06 23:24 | 42.51398 | -80.34488 | 35979 ft | 353 kts | 269° |
| 2026-05-06 23:25 | 42.51532 | -80.41146 | 35980 ft | 354 kts | 269° |
| 2026-05-06 23:25 | 42.51660 | -80.47819 | 35984 ft | 355 kts | 269° |
| 2026-05-06 23:26 | 42.51800 | -80.55241 | 35980 ft | 356 kts | 268° |
| 2026-05-06 23:26 | 42.51922 | -80.61963 | 35981 ft | 357 kts | 268° |
| 2026-05-06 23:27 | 42.52004 | -80.68708 | 35983 ft | 358 kts | 268° |
| 2026-05-06 23:27 | 42.52067 | -80.75465 | 35982 ft | 359 kts | 268° |
| 2026-05-06 23:28 | 42.52131 | -80.82250 | 35982 ft | 360 kts | 268° |
| 2026-05-06 23:28 | 42.52193 | -80.89041 | 35980 ft | 361 kts | 268° |
| 2026-05-06 23:29 | 42.52252 | -80.95841 | 35979 ft | 360 kts | 268° |
| 2026-05-06 23:29 | 42.52280 | -80.99244 | 35543 ft | 361 kts | 268° |
| 2026-05-06 23:29 | 42.52308 | -81.02634 | 34766 ft | 361 kts | 268° |
| 2026-05-06 23:29 | 42.52334 | -81.06033 | 34036 ft | 359 kts | 268° |
| 2026-05-06 23:30 | 42.52358 | -81.09406 | 33149 ft | 359 kts | 268° |
| 2026-05-06 23:30 | 42.52381 | -81.12794 | 32270 ft | 359 kts | 267° |
| 2026-05-06 23:30 | 42.52404 | -81.16182 | 31420 ft | 360 kts | 267° |
| 2026-05-06 23:30 | 42.52426 | -81.19579 | 30527 ft | 361 kts | 267° |
| 2026-05-06 23:31 | 42.52447 | -81.22985 | 29597 ft | 362 kts | 267° |
| 2026-05-06 23:31 | 42.52468 | -81.26356 | 29361 ft | 348 kts | 267° |
| 2026-05-06 23:31 | 42.52490 | -81.29584 | 29131 ft | 334 kts | 266° |
| 2026-05-06 23:31 | 42.52508 | -81.32666 | 28969 ft | 321 kts | 266° |
| 2026-05-06 23:32 | 42.52525 | -81.35627 | 28847 ft | 307 kts | 266° |
| 2026-05-06 23:32 | 42.52491 | -81.38480 | 28442 ft | 302 kts | 263° |
| 2026-05-06 23:32 | 42.52305 | -81.41257 | 28021 ft | 300 kts | 262° |
| 2026-05-06 23:32 | 42.52071 | -81.44094 | 27530 ft | 307 kts | 262° |
| 2026-05-06 23:33 | 42.51824 | -81.47029 | 27017 ft | 320 kts | 262° |
| 2026-05-06 23:33 | 42.51579 | -81.50041 | 26465 ft | 321 kts | 262° |
| 2026-05-06 23:33 | 42.51337 | -81.53042 | 25922 ft | 320 kts | 263° |
| 2026-05-06 23:33 | 42.51129 | -81.56019 | 25394 ft | 316 kts | 262° |
| 2026-05-06 23:34 | 42.50897 | -81.59004 | 24864 ft | 314 kts | 262° |
| 2026-05-06 23:34 | 42.50670 | -81.61935 | 24342 ft | 311 kts | 262° |
| 2026-05-06 23:34 | 42.50446 | -81.64843 | 23828 ft | 310 kts | 262° |
| 2026-05-06 23:34 | 42.50227 | -81.67697 | 23327 ft | 308 kts | 262° |
| 2026-05-06 23:35 | 42.50007 | -81.70575 | 22823 ft | 306 kts | 262° |
| 2026-05-06 23:35 | 42.49788 | -81.73430 | 22326 ft | 304 kts | 262° |
| 2026-05-06 23:35 | 42.49570 | -81.76265 | 21832 ft | 302 kts | 262° |
| 2026-05-06 23:35 | 42.49352 | -81.79083 | 21357 ft | 300 kts | 262° |
| 2026-05-06 23:36 | 42.49135 | -81.81886 | 20868 ft | 299 kts | 262° |
| 2026-05-06 23:36 | 42.48917 | -81.84677 | 20378 ft | 297 kts | 262° |
| 2026-05-06 23:36 | 42.48700 | -81.87458 | 19905 ft | 296 kts | 262° |
| 2026-05-06 23:36 | 42.48483 | -81.90220 | 19437 ft | 294 kts | 262° |
| 2026-05-06 23:37 | 42.48266 | -81.92973 | 18973 ft | 293 kts | 262° |
| 2026-05-06 23:37 | 42.48050 | -81.95715 | 18423 ft | 294 kts | 261° |
| 2026-05-06 23:37 | 42.47852 | -81.98458 | 18044 ft | 292 kts | 262° |
| 2026-05-06 23:37 | 42.47637 | -82.01184 | 17588 ft | 289 kts | 261° |
| 2026-05-06 23:38 | 42.47413 | -82.03884 | 17152 ft | 288 kts | 261° |
| 2026-05-06 23:38 | 42.47267 | -82.05666 | 16853 ft | 287 kts | 262° |
| 2026-05-06 23:38 | 42.47050 | -82.08344 | 16414 ft | 286 kts | 262° |
| 2026-05-06 23:38 | 42.46836 | -82.11016 | 15972 ft | 286 kts | 262° |
| 2026-05-06 23:39 | 42.46621 | -82.13690 | 15530 ft | 285 kts | 262° |
| 2026-05-06 23:39 | 42.46356 | -82.16341 | 15075 ft | 284 kts | 254° |
| 2026-05-06 23:39 | 42.45593 | -82.18791 | 14663 ft | 282 kts | 244° |
| 2026-05-06 23:39 | 42.44655 | -82.21115 | 14235 ft | 281 kts | 242° |
| 2026-05-06 23:40 | 42.43691 | -82.23414 | 13877 ft | 281 kts | 242° |
| 2026-05-06 23:40 | 42.42713 | -82.25714 | 13537 ft | 282 kts | 242° |
| 2026-05-06 23:40 | 42.41716 | -82.28046 | 13258 ft | 290 kts | 242° |
| 2026-05-06 23:40 | 42.40688 | -82.30446 | 13025 ft | 299 kts | 242° |
| 2026-05-06 23:41 | 42.39651 | -82.32885 | 12719 ft | 301 kts | 242° |
| 2026-05-06 23:41 | 42.38620 | -82.35320 | 12459 ft | 296 kts | 242° |
| 2026-05-06 23:41 | 42.37595 | -82.37727 | 12001 ft | 296 kts | 242° |
| 2026-05-06 23:41 | 42.36555 | -82.40129 | 11511 ft | 296 kts | 242° |
| 2026-05-06 23:42 | 42.35526 | -82.42536 | 11132 ft | 293 kts | 242° |
| 2026-05-06 23:42 | 42.34523 | -82.44876 | 11025 ft | 281 kts | 242° |
| 2026-05-06 23:42 | 42.33563 | -82.47110 | 10993 ft | 269 kts | 242° |
| 2026-05-06 23:42 | 42.32640 | -82.49244 | 10975 ft | 258 kts | 242° |
| 2026-05-06 23:43 | 42.31743 | -82.51303 | 10970 ft | 251 kts | 242° |
| 2026-05-06 23:43 | 42.30873 | -82.53312 | 10951 ft | 245 kts | 242° |
| 2026-05-06 23:43 | 42.30018 | -82.55330 | 10461 ft | 251 kts | 243° |
| 2026-05-06 23:43 | 42.29126 | -82.57407 | 9909 ft | 259 kts | 242° |
| 2026-05-06 23:44 | 42.28213 | -82.59515 | 9497 ft | 260 kts | 242° |
| 2026-05-06 23:44 | 42.27299 | -82.61637 | 9129 ft | 262 kts | 243° |
| 2026-05-06 23:44 | 42.26398 | -82.63760 | 8787 ft | 262 kts | 243° |
| 2026-05-06 23:44 | 42.25488 | -82.65876 | 8431 ft | 259 kts | 242° |
| 2026-05-06 23:45 | 42.24568 | -82.67984 | 8017 ft | 261 kts | 242° |
| 2026-05-06 23:45 | 42.23660 | -82.70086 | 7709 ft | 257 kts | 242° |
| 2026-05-06 23:45 | 42.22761 | -82.72176 | 7323 ft | 258 kts | 244° |
| 2026-05-06 23:45 | 42.21883 | -82.74275 | 7022 ft | 256 kts | 242° |
| 2026-05-06 23:46 | 42.20992 | -82.76343 | 6747 ft | 254 kts | 242° |
| 2026-05-06 23:46 | 42.20102 | -82.78392 | 6410 ft | 253 kts | 242° |
| 2026-05-06 23:46 | 42.19211 | -82.80452 | 6105 ft | 255 kts | 242° |
| 2026-05-06 23:46 | 42.18326 | -82.82496 | 6036 ft | 250 kts | 242° |
| 2026-05-06 23:47 | 42.17460 | -82.84499 | 6003 ft | 244 kts | 242° |
| 2026-05-06 23:47 | 42.16610 | -82.86445 | 5997 ft | 240 kts | 242° |
| 2026-05-06 23:47 | 42.15764 | -82.88395 | 6003 ft | 242 kts | 242° |
| 2026-05-06 23:47 | 42.14906 | -82.90375 | 6012 ft | 248 kts | 242° |
| 2026-05-06 23:48 | 42.14031 | -82.92401 | 6020 ft | 252 kts | 242° |
| 2026-05-06 23:48 | 42.13144 | -82.94459 | 5999 ft | 255 kts | 242° |
| 2026-05-06 23:48 | 42.12256 | -82.96520 | 5986 ft | 255 kts | 242° |
| 2026-05-06 23:48 | 42.11369 | -82.98576 | 5989 ft | 253 kts | 242° |
| 2026-05-06 23:49 | 42.10493 | -83.00624 | 5995 ft | 250 kts | 242° |
| 2026-05-06 23:49 | 42.09623 | -83.02644 | 5673 ft | 250 kts | 242° |
| 2026-05-06 23:49 | 42.08746 | -83.04679 | 5340 ft | 252 kts | 242° |
| 2026-05-06 23:49 | 42.07866 | -83.06720 | 5029 ft | 252 kts | 242° |
| 2026-05-06 23:50 | 42.06990 | -83.08753 | 4733 ft | 251 kts | 242° |
| 2026-05-06 23:50 | 42.05256 | -83.12808 | 4143 ft | 250 kts | 243° |
| 2026-05-06 23:50 | 42.04392 | -83.14829 | 4029 ft | 246 kts | 242° |
| 2026-05-06 23:51 | 42.03540 | -83.16813 | 3996 ft | 244 kts | 242° |
| 2026-05-06 23:51 | 42.02692 | -83.18783 | 3992 ft | 243 kts | 243° |
| 2026-05-06 23:51 | 42.01847 | -83.20750 | 3979 ft | 243 kts | 243° |
| 2026-05-06 23:51 | 42.01003 | -83.22723 | 3996 ft | 246 kts | 243° |
| 2026-05-06 23:52 | 42.00139 | -83.24740 | 4011 ft | 251 kts | 243° |
| 2026-05-06 23:52 | 41.99264 | -83.26786 | 4000 ft | 254 kts | 243° |
| 2026-05-06 23:52 | 41.98528 | -83.28929 | 3979 ft | 253 kts | 260° |
| 2026-05-06 23:52 | 41.98573 | -83.31223 | 3883 ft | 243 kts | 286° |
| 2026-05-06 23:53 | 41.99130 | -83.33357 | 3578 ft | 242 kts | 292° |
| 2026-05-06 23:53 | 41.99754 | -83.35457 | 3320 ft | 240 kts | 292° |
| 2026-05-06 23:53 | 42.00375 | -83.37510 | 3094 ft | 236 kts | 292° |
| 2026-05-06 23:53 | 42.00987 | -83.39513 | 3025 ft | 226 kts | 292° |
| 2026-05-06 23:54 | 42.01575 | -83.41415 | 2993 ft | 216 kts | 293° |
| 2026-05-06 23:54 | 42.02144 | -83.43241 | 2982 ft | 207 kts | 293° |
| 2026-05-06 23:54 | 42.02928 | -83.44790 | 2972 ft | 200 kts | 326° |
| 2026-05-06 23:54 | 42.04260 | -83.45171 | 3020 ft | 205 kts | 9° |
| 2026-05-06 23:55 | 42.05617 | -83.44528 | 3018 ft | 210 kts | 13° |
| 2026-05-06 23:55 | 42.07024 | -83.43947 | 3011 ft | 214 kts | 17° |
| 2026-05-06 23:55 | 42.08396 | -83.43149 | 3009 ft | 215 kts | 20° |
| 2026-05-06 23:55 | 42.09758 | -83.42302 | 3002 ft | 216 kts | 22° |
| 2026-05-06 23:56 | 42.11103 | -83.41397 | 2784 ft | 214 kts | 23° |
| 2026-05-06 23:56 | 42.12409 | -83.40476 | 2453 ft | 211 kts | 26° |
| 2026-05-06 23:56 | 42.13683 | -83.39518 | 2037 ft | 207 kts | 27° |
| 2026-05-06 23:56 | 42.14916 | -83.38603 | 1695 ft | 196 kts | 26° |
| 2026-05-06 23:57 | 42.16074 | -83.37758 | 1446 ft | 182 kts | 27° |
| 2026-05-06 23:57 | 42.17131 | -83.36975 | 1261 ft | 162 kts | 27° |
| 2026-05-06 23:57 | 42.18078 | -83.36274 | 998 ft | 151 kts | 26° |
| 2026-05-06 23:57 | 42.18976 | -83.35616 | 775 ft | 145 kts | 27° |
| 2026-05-06 23:58 | 42.19854 | -83.34967 | 649 ft | 140 kts | 27° |
| 2026-05-06 23:58 | 42.20572 | -83.34438 | 646 ft | 88 kts | 28° |
| 2026-05-06 23:58 | 42.20921 | -83.34180 | 647 ft | 35 kts | 29° |
| 2026-05-06 23:58 | 42.21124 | -83.34031 | 647 ft | 32 kts | 27° |
| 2026-05-06 23:59 | 42.21309 | -83.33966 | 646 ft | 27 kts | 1° |
| 2026-05-06 23:59 | 42.21416 | -83.34027 | 646 ft | 16 kts | 267° |
| 2026-05-06 23:59 | 42.21338 | -83.34124 | 647 ft | 15 kts | 212° |
| 2026-05-06 23:59 | 42.21248 | -83.34191 | 646 ft | 15 kts | 208° |
| 2026-05-07 00:00 | 42.21161 | -83.34254 | 646 ft | 14 kts | 208° |
| 2026-05-07 00:00 | 42.21079 | -83.34314 | 646 ft | 13 kts | 208° |
| 2026-05-07 00:00 | 42.21027 | -83.34399 | 646 ft | 13 kts | 283° |
| 2026-05-07 00:00 | 42.21065 | -83.34505 | 646 ft | 13 kts | 299° |
| 2026-05-07 00:01 | 42.21108 | -83.34606 | 647 ft | 12 kts | 301° |
| 2026-05-07 00:01 | 42.21156 | -83.34715 | 644 ft | 15 kts | 300° |
| 2026-05-07 00:01 | 42.21212 | -83.34851 | 642 ft | 17 kts | 298° |
| 2026-05-07 00:01 | 42.21291 | -83.34928 | 644 ft | 14 kts | 353° |
| 2026-05-07 00:02 | 42.21377 | -83.34987 | 648 ft | 14 kts | 328° |
| 2026-05-07 00:02 | 42.21471 | -83.35064 | 645 ft | 16 kts | 328° |
| 2026-05-07 00:02 | 42.21550 | -83.35166 | 645 ft | 16 kts | 287° |
| 2026-05-07 00:02 | 42.21549 | -83.35302 | 645 ft | 10 kts | 268° |
| 2026-05-07 00:03 | 42.21525 | -83.35371 | 647 ft | 9 kts | 189° |
| 2026-05-07 00:03 | 42.21483 | -83.35372 | 645 ft | 2 kts | 179° |
| 2026-05-07 00:03 | 42.21480 | -83.35372 | 645 ft | 0 kts | 179° |